Seward, Kansas
Current Conditions -  °F | °C
As of 9:55 AM on Friday 24 Oct 2014 (Local Time) from KGBD Reporting Station
Clear Clear  
Wind Chill: 61°   Ceiling: Unl
Heat Index: 61°   Visibility: 7mi
Dew Point: 57°   Wind: 7mph
Humidity: 88%   Direction: 230°SW
Pressure: 30.05"   Gusts: NA
Location:  38.0689°N, 98.7479°W
Report Text: KGBD 241455Z AUTO 23006KT 7SM CLR 16/14 A3005 RMK AO1 52007
Loading
Personal Weather Stations






























Interactive Weather Map
Tropical Storm Tracking
New forecast layout! Learn more

10-Day Weather Forecast

Advertisements
Track Severe Weather on mobile